This is the latest recevied weather packets stored in our database for station/object KA3BQE-13. If no packets are shown the sender has not sent any weather packets the latest 10 day(s).
| Time | Temp. | Humidity | Pressure | Rain* | Wind** | Luminosity | Snow |
|---|---|---|---|---|---|---|---|
| 1777499124 | 15° C | 51% | 1016.6 hPa | 0 mm | - | 217 W/m² | - |
| 1777498820 | 14.44° C | 47% | 1016.6 hPa | 0 mm | - | 119 W/m² | - |
| 1777498516 | 15° C | 45% | 1016.7 hPa | 0 mm | - | 316 W/m² | - |
| 1777498212 | 15° C | 44% | 1016.8 hPa | 0 mm | - | 546 W/m² | - |
| 1777497911 | 15° C | 48% | 1016.5 hPa | 0 mm | - | 592 W/m² | - |
| 1777497606 | 14.44° C | 49% | 1016.7 hPa | 0 mm | - | 358 W/m² | - |
| 1777497303 | 14.44° C | 47% | 1016.6 hPa | 0 mm | - | 225 W/m² | - |
| 1777496999 | 15° C | 45% | 1016.6 hPa | 0 mm | - | 261 W/m² | - |
| 1777496696 | 15° C | 45% | 1016.6 hPa | 0 mm | - | 319 W/m² | - |
| 1777496392 | 15° C | 48% | 1016.5 hPa | 0 mm | - | 777 W/m² | - |
| 1777496089 | 15° C | 48% | 1016.7 hPa | 0 mm | - | 248 W/m² | - |
| 1777495785 | 14.44° C | 48% | 1016.8 hPa | 0 mm | - | 261 W/m² | - |
| 1777495481 | 14.44° C | 49% | 1016.8 hPa | 0 mm | - | 209 W/m² | - |
| 1777495177 | 15.56° C | 45% | 1016.8 hPa | 0 mm | - | 252 W/m² | - |
| 1777494875 | 15° C | 48% | 1016.9 hPa | 0 mm | - | 428 W/m² | - |
| 1777494572 | 14.44° C | 49% | 1016.8 hPa | 0 mm | - | 267 W/m² | - |
| 1777494269 | 15° C | 51% | 1017 hPa | 0 mm | - | 204 W/m² | - |
| 1777493966 | 14.44° C | 49% | 1016.8 hPa | 0 mm | - | 772 W/m² | - |
| 1777493664 | 15.56° C | 49% | 1017.1 hPa | 0 mm | - | 227 W/m² | - |
| 1777493361 | 16.11° C | 53% | 1017 hPa | 0 mm | - | 789 W/m² | - |
| 1777493057 | 14.44° C | 54% | 1017 hPa | 0 mm | - | 891 W/m² | - |
| 1777492754 | 14.44° C | 54% | 1017.2 hPa | 0 mm | - | 236 W/m² | - |
| 1777492450 | 15° C | 54% | 1017.1 hPa | 0 mm | - | 255 W/m² | - |
| 1777492147 | 15.56° C | 53% | 1017.2 hPa | 0 mm | - | 352 W/m² | - |
| 1777491844 | 15° C | 53% | 1017.2 hPa | 0 mm | - | 964 W/m² | - |
* Rain latest hour (hover to see other rain measurements)
** Current wind speed in m/s (hover to see current wind gust speed)